createdAt,value
2023-02-01T00:00:42.804Z,4.35
2023-02-01T00:03:10.420Z,4.39
2023-02-01T00:05:39.398Z,4.42
2023-02-01T00:08:07.195Z,4.45
2023-02-01T00:10:34.795Z,4.47
2023-02-01T00:13:02.419Z,4.50
2023-02-01T00:15:30.029Z,4.51
2023-02-01T00:17:57.739Z,4.53
2023-02-01T00:20:25.363Z,4.58
2023-02-01T00:22:54.340Z,4.60
2023-02-01T00:25:22.000Z,4.63
2023-02-01T00:27:50.964Z,4.57
2023-02-01T00:30:19.804Z,4.61
2023-02-01T00:32:47.691Z,4.65
2023-02-01T00:35:15.400Z,4.64
2023-02-01T00:37:42.982Z,4.69
2023-02-01T00:40:13.272Z,4.70
2023-02-01T00:42:41.087Z,4.73
2023-02-01T00:45:09.794Z,4.77
2023-02-01T00:47:37.457Z,4.80
2023-02-01T00:50:05.661Z,4.85
2023-02-01T00:52:33.375Z,4.86
2023-02-01T00:55:01.411Z,4.89
2023-02-01T00:57:30.413Z,4.93
2023-02-01T00:59:58.042Z,4.97
2023-02-01T01:02:28.089Z,4.98
2023-02-01T01:04:55.767Z,5.01
2023-02-01T01:07:23.382Z,5.05
2023-02-01T01:09:51.027Z,5.04
2023-02-01T01:12:20.755Z,5.03
2023-02-01T01:14:50.161Z,5.05
2023-02-01T01:17:18.593Z,5.08
2023-02-01T01:19:46.197Z,5.07
2023-02-01T01:22:13.808Z,5.09
2023-02-01T01:24:41.752Z,5.10
2023-02-01T01:27:09.372Z,5.08
2023-02-01T01:29:37.060Z,5.10
2023-02-01T01:32:06.125Z,5.11
2023-02-01T01:34:33.850Z,5.11
2023-02-01T01:37:01.446Z,5.10
2023-02-01T01:39:29.115Z,5.11
2023-02-01T01:41:56.710Z,5.07
2023-02-01T01:44:57.475Z,5.08
2023-02-01T01:47:27.393Z,5.05
2023-02-01T01:49:55.217Z,5.07
2023-02-01T01:52:23.489Z,5.05
2023-02-01T01:54:55.151Z,5.06
2023-02-01T01:57:28.569Z,5.03
2023-02-01T02:00:08.117Z,5.03
2023-02-01T02:02:39.338Z,5.05
2023-02-01T02:05:07.830Z,5.02
2023-02-01T02:07:39.019Z,4.99
2023-02-01T02:10:11.567Z,4.97
2023-02-01T02:12:40.974Z,4.99
2023-02-01T02:15:11.425Z,4.98
2023-02-01T02:17:50.503Z,4.97
2023-02-01T02:20:41.911Z,4.95
2023-02-01T02:23:49.143Z,4.97
2023-02-01T02:27:24.051Z,4.97
2023-02-01T02:30:26.074Z,4.94
2023-02-01T02:33:30.275Z,4.94
2023-02-01T02:36:03.638Z,4.94
2023-02-01T02:38:41.253Z,4.95
2023-02-01T02:41:36.580Z,4.95
2023-02-01T02:44:31.956Z,4.97
2023-02-01T02:47:22.383Z,4.98
2023-02-01T02:50:11.442Z,4.97
2023-02-01T02:53:02.773Z,5.00
2023-02-01T02:55:32.590Z,5.01
2023-02-01T02:58:18.561Z,4.98
2023-02-01T03:01:04.018Z,4.98
2023-02-01T03:03:49.210Z,4.99
2023-02-01T03:06:19.906Z,4.98
2023-02-01T03:08:48.234Z,4.99
2023-02-01T03:11:17.310Z,4.98
2023-02-01T03:13:48.751Z,5.02
2023-02-01T03:16:27.074Z,5.06
2023-02-01T03:19:00.632Z,5.09
2023-02-01T03:21:34.770Z,5.11
2023-02-01T03:24:08.675Z,5.10
2023-02-01T03:26:40.254Z,5.12
2023-02-01T03:29:19.549Z,5.13
2023-02-01T03:31:47.257Z,5.11
2023-02-01T03:34:15.610Z,5.05
2023-02-01T03:36:50.354Z,4.98
2023-02-01T03:39:22.891Z,4.92
2023-02-01T03:41:53.371Z,4.86
2023-02-01T03:44:25.140Z,4.80
2023-02-01T03:46:56.266Z,4.74
2023-02-01T03:49:28.788Z,4.67
2023-02-01T03:52:00.614Z,4.60
2023-02-01T03:54:30.570Z,4.59
2023-02-01T03:57:01.800Z,4.62
2023-02-01T03:59:29.461Z,4.60
2023-02-01T04:01:57.125Z,4.64
2023-02-01T04:04:24.827Z,4.63
2023-02-01T04:06:52.928Z,4.63
2023-02-01T04:09:21.925Z,4.64
2023-02-01T04:11:49.495Z,4.63
2023-02-01T04:14:17.217Z,4.64
2023-02-01T04:16:44.841Z,4.65
2023-02-01T04:19:12.559Z,4.67
2023-02-01T04:21:40.451Z,4.71
2023-02-01T04:24:09.530Z,4.73
2023-02-01T04:26:38.568Z,4.74
2023-02-01T04:29:06.295Z,4.79
2023-02-01T04:31:34.730Z,4.80
2023-02-01T04:34:02.468Z,4.83
2023-02-01T04:36:30.147Z,4.87
2023-02-01T04:38:57.911Z,4.88
2023-02-01T04:41:25.553Z,4.90
2023-02-01T04:43:54.541Z,4.88
2023-02-01T04:46:22.278Z,4.86
2023-02-01T04:48:49.896Z,4.81
2023-02-01T04:51:19.009Z,4.78
2023-02-01T04:53:46.931Z,4.75
2023-02-01T04:56:14.590Z,4.73
2023-02-01T04:58:42.153Z,4.75
2023-02-01T05:01:11.207Z,4.75
2023-02-01T05:03:38.885Z,4.74
2023-02-01T05:06:06.981Z,4.73
2023-02-01T05:08:34.906Z,4.72
2023-02-01T05:11:04.338Z,4.74
2023-02-01T05:13:49.572Z,4.74
2023-02-01T05:16:19.029Z,4.77
2023-02-01T05:18:46.707Z,4.77
2023-02-01T05:21:14.569Z,4.77
2023-02-01T05:23:56.132Z,4.79
2023-02-01T05:26:24.027Z,4.72
2023-02-01T05:28:51.680Z,4.66
2023-02-01T05:31:20.814Z,4.62
2023-02-01T05:33:49.105Z,4.63
2023-02-01T05:36:16.767Z,4.61
2023-02-01T05:38:44.532Z,4.57
2023-02-01T05:41:12.228Z,4.59
2023-02-01T05:43:39.906Z,4.58
2023-02-01T05:46:07.533Z,4.59
2023-02-01T05:48:36.532Z,4.59
2023-02-01T05:51:04.212Z,4.56
2023-02-01T05:53:31.826Z,4.52
2023-02-01T05:55:59.498Z,4.56
2023-02-01T05:58:27.410Z,4.56
2023-02-01T06:00:55.036Z,4.60
2023-02-01T06:03:22.825Z,4.60
2023-02-01T06:05:51.804Z,4.62
2023-02-01T06:08:19.522Z,4.61
2023-02-01T06:10:47.361Z,4.61
2023-02-01T06:13:15.060Z,4.61
2023-02-01T06:15:45.052Z,4.62
2023-02-01T06:18:12.790Z,4.62
2023-02-01T06:20:40.404Z,4.61
2023-02-01T06:23:09.329Z,4.59
2023-02-01T06:25:36.941Z,4.57
2023-02-01T06:28:06.697Z,4.56
2023-02-01T06:30:34.321Z,4.55
2023-02-01T06:33:01.940Z,4.58
2023-02-01T06:35:29.522Z,4.59
2023-02-01T06:37:57.634Z,4.63
2023-02-01T06:40:26.713Z,4.66
2023-02-01T06:42:54.326Z,4.69
2023-02-01T06:45:21.959Z,4.74
2023-02-01T06:47:49.548Z,4.77
2023-02-01T06:50:17.863Z,4.78
2023-02-01T06:52:45.484Z,4.78
2023-02-01T06:55:13.967Z,4.79
2023-02-01T06:57:43.022Z,4.81
2023-02-01T07:00:12.068Z,4.81
2023-02-01T07:02:40.391Z,4.81
2023-02-01T07:05:08.368Z,4.78
2023-02-01T07:07:36.009Z,4.79
2023-02-01T07:10:03.722Z,4.77
2023-02-01T07:12:31.450Z,4.74
2023-02-01T07:15:00.462Z,4.75
2023-02-01T07:17:29.969Z,4.75
2023-02-01T07:19:57.696Z,4.73
2023-02-01T07:22:25.259Z,4.68
2023-02-01T07:24:52.918Z,4.69
2023-02-01T07:27:20.902Z,4.69
2023-02-01T07:29:48.539Z,4.68
2023-02-01T07:32:19.013Z,4.69
2023-02-01T07:34:46.754Z,4.71
2023-02-01T07:37:14.392Z,4.75
2023-02-01T07:39:42.069Z,4.78
2023-02-01T07:42:09.639Z,4.79
2023-02-01T07:44:37.416Z,4.81
2023-02-01T07:47:05.251Z,4.83
2023-02-01T07:49:34.253Z,4.86
2023-02-01T07:52:01.872Z,4.88
2023-02-01T07:54:29.634Z,4.87
2023-02-01T07:56:57.860Z,4.88
2023-02-01T07:59:25.455Z,4.91
2023-02-01T08:01:52.138Z,4.96
2023-02-01T08:04:19.747Z,4.99
2023-02-01T08:06:48.658Z,5.01
2023-02-01T08:09:16.568Z,5.02
2023-02-01T08:11:44.146Z,5.08
2023-02-01T08:14:12.108Z,5.08
2023-02-01T08:16:40.281Z,5.13
2023-02-01T08:19:08.507Z,5.15
2023-02-01T08:21:38.307Z,5.26
2023-02-01T08:24:10.186Z,5.37
2023-02-01T08:26:37.961Z,5.50
2023-02-01T08:29:07.788Z,5.64
2023-02-01T08:31:35.925Z,5.73
2023-02-01T08:34:05.615Z,5.79
2023-02-01T08:36:33.718Z,5.81
2023-02-01T08:39:02.182Z,5.94
2023-02-01T08:41:32.183Z,6.09
2023-02-01T08:43:59.970Z,6.24
2023-02-01T08:46:27.738Z,6.28
2023-02-01T08:48:55.520Z,6.39
2023-02-01T08:51:24.611Z,6.14
2023-02-01T08:53:52.290Z,6.05
2023-02-01T08:56:21.434Z,5.88
2023-02-01T08:58:50.387Z,5.83
2023-02-01T09:01:19.171Z,5.90
2023-02-01T09:03:47.544Z,5.75
2023-02-01T09:06:17.095Z,5.84
2023-02-01T09:08:45.617Z,5.88
2023-02-01T09:11:15.232Z,6.01
2023-02-01T09:13:43.550Z,6.19
2023-02-01T09:16:13.289Z,6.25
2023-02-01T09:18:50.504Z,6.26
2023-02-01T09:21:28.727Z,6.24
2023-02-01T09:23:56.360Z,6.23
2023-02-01T09:26:31.533Z,6.27
2023-02-01T09:29:00.394Z,6.29
2023-02-01T09:31:29.481Z,6.22
2023-02-01T09:33:57.695Z,6.27
2023-02-01T09:36:26.005Z,6.28
2023-02-01T09:38:54.339Z,6.26
2023-02-01T09:41:33.872Z,6.24
2023-02-01T09:44:10.263Z,6.28
2023-02-01T09:46:39.311Z,6.41
2023-02-01T09:49:11.518Z,6.41
2023-02-01T09:51:42.328Z,6.27
2023-02-01T09:54:15.475Z,6.12
2023-02-01T09:56:51.938Z,6.07
2023-02-01T09:59:31.719Z,5.96
2023-02-01T10:02:01.639Z,5.97
2023-02-01T10:04:29.480Z,6.15
2023-02-01T10:07:10.411Z,6.40
2023-02-01T10:09:51.353Z,6.57
2023-02-01T10:13:08.227Z,6.62
2023-02-01T10:15:54.058Z,6.78
2023-02-01T10:18:40.495Z,6.98
2023-02-01T10:21:17.634Z,7.07
2023-02-01T10:24:16.046Z,7.23
2023-02-01T10:26:49.602Z,7.07
2023-02-01T10:29:21.727Z,7.00
2023-02-01T10:31:49.496Z,7.12
2023-02-01T10:34:22.971Z,7.21
2023-02-01T10:36:56.980Z,7.17
2023-02-01T10:39:25.578Z,7.22
2023-02-01T10:41:53.847Z,7.09
2023-02-01T10:44:25.860Z,7.01
2023-02-01T10:46:54.403Z,6.80
2023-02-01T10:49:28.851Z,6.58
2023-02-01T10:52:02.920Z,6.56
2023-02-01T10:54:39.216Z,6.47
2023-02-01T10:57:09.642Z,6.49
2023-02-01T10:59:38.511Z,6.49
2023-02-01T11:02:22.025Z,6.51
2023-02-01T11:04:52.665Z,6.52
2023-02-01T11:07:26.283Z,6.60
2023-02-01T11:09:57.321Z,6.63
2023-02-01T11:12:30.573Z,6.59
2023-02-01T11:15:05.216Z,6.68
2023-02-01T11:17:36.028Z,6.72
2023-02-01T11:20:08.763Z,6.74
2023-02-01T11:22:36.413Z,6.67
2023-02-01T11:25:11.529Z,6.57
2023-02-01T11:27:53.153Z,6.57
2023-02-01T11:30:33.996Z,6.62
2023-02-01T11:33:04.054Z,6.68
2023-02-01T11:35:36.671Z,6.66
2023-02-01T11:38:14.094Z,6.66
2023-02-01T11:40:41.826Z,6.61
2023-02-01T11:43:15.602Z,6.53
2023-02-01T11:45:43.576Z,6.53
2023-02-01T11:48:26.381Z,6.57
2023-02-01T11:51:09.687Z,6.40
2023-02-01T11:53:57.161Z,6.38
2023-02-01T11:56:30.617Z,6.38
2023-02-01T11:59:18.827Z,6.32
2023-02-01T12:02:05.015Z,6.29
2023-02-01T12:04:59.717Z,6.25
2023-02-01T12:07:42.260Z,6.29
2023-02-01T12:10:26.670Z,6.31
2023-02-01T12:13:05.803Z,6.46
2023-02-01T12:15:48.492Z,6.65
2023-02-01T12:18:37.448Z,6.88
2023-02-01T12:21:24.065Z,7.05
2023-02-01T12:24:17.892Z,7.24
2023-02-01T12:27:08.108Z,7.31
2023-02-01T12:29:50.040Z,7.13
2023-02-01T12:32:49.558Z,7.08
2023-02-01T12:35:46.332Z,7.00
2023-02-01T12:38:36.776Z,7.12
2023-02-01T12:41:20.309Z,7.08
2023-02-01T12:43:53.359Z,6.81
2023-02-01T12:46:27.934Z,6.54
2023-02-01T12:49:02.169Z,5.89
2023-02-01T12:51:33.855Z,5.60
2023-02-01T12:54:07.667Z,5.35
2023-02-01T12:56:41.044Z,5.05
2023-02-01T12:59:18.947Z,4.72
2023-02-01T13:01:53.181Z,4.74
2023-02-01T13:04:27.396Z,4.89
2023-02-01T13:07:03.378Z,5.02
2023-02-01T13:09:38.538Z,5.18
2023-02-01T13:12:14.732Z,5.39
2023-02-01T13:14:47.378Z,5.47
2023-02-01T13:17:18.558Z,5.52
2023-02-01T13:19:51.573Z,5.67
2023-02-01T13:22:26.080Z,5.78
2023-02-01T13:24:57.145Z,5.83
2023-02-01T13:27:31.191Z,5.94
2023-02-01T13:30:02.581Z,5.97
2023-02-01T13:33:53.157Z,6.06
2023-02-01T13:36:07.642Z,6.06
2023-02-01T13:39:07.904Z,6.11
2023-02-01T13:41:43.703Z,6.20
2023-02-01T13:44:18.881Z,6.27
2023-02-01T13:46:48.838Z,6.36
2023-02-01T13:49:22.483Z,6.41
2023-02-01T13:51:53.548Z,6.47
2023-02-01T13:54:30.944Z,6.44
2023-02-01T13:57:01.146Z,6.38
2023-02-01T13:59:51.722Z,6.28
2023-02-01T14:03:05.175Z,6.35
2023-02-01T14:05:59.131Z,6.37
2023-02-01T14:08:41.021Z,6.24
2023-02-01T14:11:08.784Z,6.22
2023-02-01T14:13:38.504Z,6.27
2023-02-01T14:16:19.937Z,6.28
2023-02-01T14:19:02.176Z,6.21
2023-02-01T14:21:33.088Z,6.17
2023-02-01T14:24:03.463Z,6.17
2023-02-01T14:26:45.989Z,6.17
2023-02-01T14:29:28.937Z,6.12
2023-02-01T14:32:06.704Z,6.04
2023-02-01T14:34:44.312Z,6.01
2023-02-01T14:37:25.366Z,6.00
2023-02-01T14:40:01.650Z,5.98
2023-02-01T14:42:32.550Z,5.99
2023-02-01T14:45:35.973Z,5.89
2023-02-01T14:48:45.727Z,6.00
2023-02-01T14:51:16.747Z,6.03
2023-02-01T14:53:45.383Z,6.07
2023-02-01T14:56:17.938Z,6.07
2023-02-01T14:58:49.665Z,5.99
2023-02-01T15:01:26.147Z,6.03
2023-02-01T15:04:00.701Z,6.08
2023-02-01T15:06:35.925Z,6.15
2023-02-01T15:09:09.518Z,6.17
2023-02-01T15:12:03.473Z,6.18
2023-02-01T15:14:32.834Z,6.12
2023-02-01T15:17:00.929Z,6.10
2023-02-01T15:19:31.628Z,6.17
2023-02-01T15:22:00.922Z,6.20
2023-02-01T15:24:30.286Z,6.12
2023-02-01T15:27:05.555Z,6.13
2023-02-01T15:29:34.973Z,6.09
2023-02-01T15:32:02.924Z,6.15
2023-02-01T15:34:50.784Z,6.12
2023-02-01T15:37:19.584Z,6.11
2023-02-01T15:40:08.907Z,6.09
2023-02-01T15:42:37.282Z,6.07
2023-02-01T15:45:05.756Z,6.06
2023-02-01T15:47:33.993Z,6.04
2023-02-01T15:50:03.784Z,6.02
2023-02-01T15:52:38.767Z,5.90
2023-02-01T15:55:09.930Z,5.46
2023-02-01T15:57:43.196Z,5.30
2023-02-01T16:00:24.591Z,5.19
2023-02-01T16:02:58.129Z,5.07
2023-02-01T16:05:34.239Z,4.96
2023-02-01T16:08:05.518Z,4.97
2023-02-01T16:10:40.044Z,4.96
2023-02-01T16:13:08.055Z,4.98
2023-02-01T16:15:35.677Z,5.00
2023-02-01T16:18:03.399Z,5.05
2023-02-01T16:20:34.063Z,5.12
2023-02-01T16:23:01.737Z,5.20
2023-02-01T16:25:29.536Z,5.28
2023-02-01T16:27:57.805Z,5.31
2023-02-01T16:30:25.721Z,5.35
2023-02-01T16:32:55.761Z,5.42
2023-02-01T16:35:26.373Z,5.43
2023-02-01T16:37:56.398Z,5.42
2023-02-01T16:40:24.163Z,5.41
2023-02-01T16:42:53.524Z,5.41
2023-02-01T16:45:22.548Z,5.41
2023-02-01T16:47:53.142Z,5.40
2023-02-01T16:50:24.332Z,5.41
2023-02-01T16:52:52.444Z,5.44
2023-02-01T16:55:23.604Z,5.45
2023-02-01T16:57:51.564Z,5.38
2023-02-01T17:00:25.502Z,5.34
2023-02-01T17:02:54.656Z,5.21
2023-02-01T17:05:23.098Z,5.24
2023-02-01T17:07:51.258Z,5.24
2023-02-01T17:10:38.870Z,5.24
2023-02-01T17:13:06.847Z,5.23
2023-02-01T17:15:37.215Z,5.24
2023-02-01T17:18:05.426Z,5.19
2023-02-01T17:20:34.051Z,5.15
2023-02-01T17:23:02.015Z,5.11
2023-02-01T17:25:32.803Z,5.14
2023-02-01T17:28:00.904Z,5.16
2023-02-01T17:30:28.857Z,5.20
2023-02-01T17:32:57.002Z,5.20
2023-02-01T17:35:29.754Z,5.25
2023-02-01T17:37:57.806Z,5.25
2023-02-01T17:40:25.537Z,5.28
2023-02-01T17:42:57.783Z,5.33
2023-02-01T17:45:36.304Z,5.34
2023-02-01T17:48:04.813Z,5.35
2023-02-01T17:50:34.906Z,5.35
2023-02-01T17:53:03.180Z,5.35
2023-02-01T17:55:30.927Z,5.32
2023-02-01T17:58:00.157Z,5.23
2023-02-01T18:00:28.168Z,5.18
2023-02-01T18:02:57.072Z,5.13
2023-02-01T18:05:28.062Z,5.11
2023-02-01T18:07:55.877Z,5.03
2023-02-01T18:10:23.644Z,4.99
2023-02-01T18:12:51.563Z,4.99
2023-02-01T18:15:22.557Z,4.93
2023-02-01T18:17:50.645Z,4.86
2023-02-01T18:20:20.216Z,4.83
2023-02-01T18:22:49.574Z,4.82
2023-02-01T18:25:20.612Z,4.80
2023-02-01T18:27:49.027Z,4.76
2023-02-01T18:30:17.433Z,4.72
2023-02-01T18:32:48.450Z,4.67
2023-02-01T18:35:24.810Z,4.63
2023-02-01T18:37:55.220Z,4.61
2023-02-01T18:40:24.923Z,4.58
2023-02-01T18:42:52.765Z,4.59
2023-02-01T18:45:28.101Z,4.64
2023-02-01T18:47:57.127Z,4.66
2023-02-01T18:50:25.851Z,4.71
2023-02-01T18:52:55.288Z,4.73
2023-02-01T18:55:23.641Z,4.72
2023-02-01T18:57:51.896Z,4.71
2023-02-01T19:00:20.891Z,4.74
2023-02-01T19:02:49.793Z,4.74
2023-02-01T19:05:19.444Z,4.75
2023-02-01T19:07:47.732Z,4.75
2023-02-01T19:10:17.816Z,4.79
2023-02-01T19:12:45.892Z,4.81
2023-02-01T19:15:15.708Z,4.85
2023-02-01T19:17:45.146Z,4.85
2023-02-01T19:20:14.899Z,4.85
2023-02-01T19:22:44.428Z,4.86
2023-02-01T19:25:16.370Z,4.84
2023-02-01T19:27:44.031Z,4.87
2023-02-01T19:30:14.070Z,4.91
2023-02-01T19:32:42.349Z,4.93
2023-02-01T19:35:13.159Z,4.96
2023-02-01T19:37:43.994Z,4.98
2023-02-01T19:40:14.784Z,5.01
2023-02-01T19:42:42.716Z,5.03
2023-02-01T19:45:11.790Z,5.08
2023-02-01T19:47:39.745Z,5.12
2023-02-01T19:50:08.858Z,5.13
2023-02-01T19:52:36.869Z,5.17
2023-02-01T19:55:07.419Z,5.20
2023-02-01T19:57:36.349Z,5.26
2023-02-01T20:00:05.375Z,5.27
2023-02-01T20:02:32.227Z,5.31
2023-02-01T20:05:00.080Z,5.36
2023-02-01T20:07:27.686Z,5.35
2023-02-01T20:09:55.330Z,5.37
2023-02-01T20:12:24.639Z,5.42
2023-02-01T20:14:52.362Z,5.46
2023-02-01T20:17:20.007Z,5.49
2023-02-01T20:19:47.647Z,5.50
2023-02-01T20:22:15.264Z,5.49
2023-02-01T20:24:43.160Z,5.42
2023-02-01T20:27:13.010Z,5.44
2023-02-01T20:29:42.289Z,5.44
2023-02-01T20:32:10.728Z,5.48
2023-02-01T20:34:38.384Z,5.52
2023-02-01T20:37:06.021Z,5.50
2023-02-01T20:39:33.787Z,5.49
2023-02-01T20:42:01.374Z,5.43
2023-02-01T20:44:28.955Z,5.39
2023-02-01T20:46:58.932Z,5.42
2023-02-01T20:49:26.619Z,5.40
2023-02-01T20:51:54.203Z,5.43
2023-02-01T20:54:21.882Z,5.41
2023-02-01T20:56:49.844Z,5.48
2023-02-01T20:59:17.791Z,5.47
2023-02-01T21:01:52.866Z,5.47
2023-02-01T21:04:27.215Z,5.45
2023-02-01T21:06:55.905Z,5.50
2023-02-01T21:09:24.635Z,5.45
2023-02-01T21:11:52.385Z,5.47
2023-02-01T21:14:21.178Z,5.49
2023-02-01T21:16:49.235Z,5.50
2023-02-01T21:19:19.389Z,5.53
2023-02-01T21:21:48.314Z,5.50
2023-02-01T21:24:15.928Z,5.47
2023-02-01T21:26:43.667Z,5.61
2023-02-01T21:29:13.038Z,5.57
2023-02-01T21:31:41.700Z,5.58
2023-02-01T21:34:09.685Z,5.57
2023-02-01T21:36:37.499Z,5.60
2023-02-01T21:39:08.657Z,5.55
2023-02-01T21:41:54.867Z,5.66
2023-02-01T21:44:23.023Z,5.64
2023-02-01T21:46:51.097Z,5.64
2023-02-01T21:49:18.874Z,5.59
2023-02-01T21:51:46.536Z,5.60
2023-02-01T21:54:15.469Z,5.59
2023-02-01T21:56:43.416Z,5.54
2023-02-01T21:59:12.445Z,5.51
2023-02-01T22:01:41.025Z,5.48
2023-02-01T22:04:10.127Z,5.47
2023-02-01T22:06:39.482Z,5.53
2023-02-01T22:09:08.180Z,5.50
2023-02-01T22:11:37.122Z,5.49
2023-02-01T22:14:04.904Z,5.50
2023-02-01T22:16:32.531Z,5.48
2023-02-01T22:19:00.178Z,5.49
2023-02-01T22:21:28.261Z,5.48
2023-02-01T22:23:59.000Z,5.39
2023-02-01T22:26:27.621Z,5.40
2023-02-01T22:28:56.799Z,5.31
2023-02-01T22:31:24.918Z,5.31
2023-02-01T22:33:52.617Z,5.28
2023-02-01T22:36:20.688Z,5.27
2023-02-01T22:38:48.975Z,5.22
2023-02-01T22:41:16.593Z,5.20
2023-02-01T22:43:44.905Z,5.23
2023-02-01T22:46:16.220Z,5.24
2023-02-01T22:48:45.843Z,5.21
2023-02-01T22:51:16.522Z,5.23
2023-02-01T22:53:44.412Z,5.25
2023-02-01T22:56:13.711Z,5.27
2023-02-01T22:58:41.748Z,5.27
2023-02-01T23:01:10.113Z,5.24
2023-02-01T23:03:40.059Z,5.25
2023-02-01T23:06:09.241Z,5.24
2023-02-01T23:08:39.285Z,5.24
2023-02-01T23:11:09.137Z,5.16
2023-02-01T23:13:38.928Z,5.15
2023-02-01T23:16:10.022Z,5.17
2023-02-01T23:18:39.628Z,5.14
2023-02-01T23:21:09.169Z,5.10
2023-02-01T23:23:36.867Z,5.05
2023-02-01T23:26:05.613Z,5.00
2023-02-01T23:28:33.254Z,5.00
2023-02-01T23:31:01.208Z,4.98
2023-02-01T23:33:29.181Z,4.97
2023-02-01T23:36:00.122Z,4.94
2023-02-01T23:38:28.681Z,4.89
2023-02-01T23:40:59.335Z,4.85
2023-02-01T23:43:44.806Z,4.86
2023-02-01T23:46:15.626Z,4.82
2023-02-01T23:48:43.713Z,4.77
2023-02-01T23:51:13.318Z,4.77
2023-02-01T23:53:41.046Z,4.78
2023-02-01T23:56:09.202Z,4.75
2023-02-01T23:58:36.831Z,4.72
